Time;durP1;ratioP1;P1;durP2;ratioP2;P2;SDS_P1;SDS_P2;PMS_P1;PMS_P2;Temp;Humidity;BMP_temperature;BMP_pressure;BME280_temperature;BME280_humidity;BME280_pressure;Samples;Min_cycle;Max_cycle;Signal;HPM_P1;HPM_P2
2023/10/03 00:01:40;;;;;;;24.73;14.32;;;20.70;66.40;;;;;;4988375;28;20050;-52
2023/10/03 00:04:10;;;;;;;24.90;14.57;;;20.70;66.30;;;;;;4982428;28;20505;-49
2023/10/03 00:06:46;;;;;;;23.33;13.13;;;20.70;66.40;;;;;;4988161;28;20710;-50
2023/10/03 00:09:16;;;;;;;25.15;15.10;;;20.70;66.30;;;;;;4987553;28;20182;-53
2023/10/03 00:11:44;;;;;;;23.77;13.70;;;20.70;66.30;;;;;;4982844;28;20519;-50
2023/10/03 00:14:12;;;;;;;23.52;13.73;;;20.70;66.40;;;;;;4979973;28;20073;-49
2023/10/03 00:16:39;;;;;;;28.02;14.10;;;20.70;66.40;;;;;;4969715;28;20043;-53
2023/10/03 00:19:06;;;;;;;23.23;13.15;;;20.80;66.40;;;;;;4970760;28;20050;-50
2023/10/03 00:21:45;;;;;;;26.38;14.05;;;20.80;66.40;;;;;;4982405;28;20047;-52
2023/10/03 00:24:11;;;;;;;26.60;14.80;;;20.80;66.60;;;;;;4974194;28;20045;-49
2023/10/03 00:26:39;;;;;;;27.35;14.00;;;20.80;66.30;;;;;;4978137;28;20070;-57
2023/10/03 00:29:13;;;;;;;24.10;13.38;;;20.80;66.30;;;;;;4971218;28;20047;-51
2023/10/03 00:31:40;;;;;;;24.17;12.95;;;20.80;66.30;;;;;;5000825;28;20100;-52
2023/10/03 00:34:07;;;;;;;28.02;14.77;;;20.90;66.30;;;;;;4981210;28;20469;-51
2023/10/03 00:36:36;;;;;;;25.00;14.48;;;20.90;66.40;;;;;;4970711;28;20042;-50
2023/10/03 00:39:06;;;;;;;25.17;13.50;;;20.90;66.30;;;;;;4976693;28;20062;-52
2023/10/03 00:41:43;;;;;;;25.05;13.45;;;20.90;66.30;;;;;;4986168;28;20509;-53
2023/10/03 00:44:17;;;;;;;26.10;14.18;;;20.90;66.20;;;;;;4984407;28;20129;-52
2023/10/03 00:46:48;;;;;;;24.13;12.60;;;21.00;66.30;;;;;;5003716;28;20081;-49
2023/10/03 00:49:16;;;;;;;26.02;14.10;;;21.00;66.10;;;;;;4974939;28;20059;-51
2023/10/03 00:51:45;;;;;;;25.30;13.85;;;21.00;66.10;;;;;;4975629;28;20525;-52
2023/10/03 00:54:16;;;;;;;21.70;12.88;;;21.00;66.20;;;;;;4974142;28;20398;-53
2023/10/03 00:56:43;;;;;;;23.00;12.35;;;21.00;66.20;;;;;;4988644;28;20138;-52
2023/10/03 00:59:13;;;;;;;23.77;12.30;;;21.00;66.80;;;;;;4970474;28;20046;-51
2023/10/03 01:01:43;;;;;;;24.42;12.63;;;21.00;66.40;;;;;;4999518;28;20053;-52
2023/10/03 01:04:19;;;;;;;23.13;12.50;;;21.00;66.40;;;;;;4979404;28;20034;-52
2023/10/03 01:06:48;;;;;;;24.48;12.98;;;21.00;66.60;;;;;;4982813;28;20080;-52
2023/10/03 01:09:24;;;;;;;24.40;13.77;;;21.10;66.70;;;;;;4985772;28;20527;-52
2023/10/03 01:11:53;;;;;;;27.85;12.35;;;21.10;66.80;;;;;;4980611;28;20050;-52
2023/10/03 01:14:21;;;;;;;23.65;13.23;;;21.10;66.50;;;;;;4988223;28;20038;-51
2023/10/03 01:16:48;;;;;;;20.30;12.00;;;21.10;66.60;;;;;;4971593;28;20043;-52
2023/10/03 01:19:21;;;;;;;24.98;12.88;;;21.10;66.60;;;;;;4973636;28;20046;-52
2023/10/03 01:21:50;;;;;;;19.35;10.85;;;21.20;66.70;;;;;;4978179;28;20030;-52
2023/10/03 01:24:20;;;;;;;24.67;13.43;;;21.10;66.40;;;;;;4980107;28;20773;-52
2023/10/03 01:26:48;;;;;;;28.23;13.00;;;21.10;66.40;;;;;;4987555;28;20046;-52
2023/10/03 01:29:15;;;;;;;24.05;11.90;;;21.20;66.40;;;;;;4976504;28;20050;-49
2023/10/03 01:31:42;;;;;;;23.67;12.93;;;21.20;66.40;;;;;;4988555;28;20046;-53
2023/10/03 01:34:15;;;;;;;24.05;12.80;;;21.20;66.30;;;;;;4979289;28;20046;-49
2023/10/03 01:36:48;;;;;;;26.40;13.07;;;21.20;66.30;;;;;;5003719;28;20054;-49
2023/10/03 01:39:21;;;;;;;22.10;12.52;;;21.20;66.20;;;;;;4975726;28;20046;-50
2023/10/03 01:41:48;;;;;;;19.45;11.25;;;21.20;66.10;;;;;;5002681;28;20085;-49
2023/10/03 01:44:16;;;;;;;28.55;13.07;;;21.20;66.00;;;;;;4980544;28;20067;-52
2023/10/03 01:46:45;;;;;;;22.65;12.35;;;21.10;65.80;;;;;;4992721;28;20065;-49
2023/10/03 01:49:16;;;;;;;20.33;12.10;;;21.10;65.90;;;;;;4978920;28;20042;-50
2023/10/03 01:51:47;;;;;;;20.58;12.23;;;21.10;65.90;;;;;;4989107;28;20062;-50
2023/10/03 01:54:15;;;;;;;18.52;11.20;;;21.10;65.90;;;;;;4973246;28;20141;-49
2023/10/03 01:56:42;;;;;;;22.92;12.35;;;21.10;66.00;;;;;;4975812;28;20066;-50
2023/10/03 01:59:11;;;;;;;24.35;11.38;;;21.00;66.10;;;;;;4974983;28;20109;-50
2023/10/03 02:01:42;;;;;;;23.90;11.77;;;21.00;66.20;;;;;;4998183;28;20133;-52
2023/10/03 02:04:10;;;;;;;22.35;12.70;;;21.00;66.30;;;;;;4978930;28;20054;-53
2023/10/03 02:06:39;;;;;;;19.80;10.27;;;21.00;66.30;;;;;;4977245;28;20050;-53
2023/10/03 02:09:09;;;;;;;16.92;9.50;;;21.00;66.30;;;;;;4974652;28;20078;-51
2023/10/03 02:11:37;;;;;;;16.02;9.82;;;21.00;66.30;;;;;;4978944;28;20070;-52
2023/10/03 02:14:07;;;;;;;15.27;8.45;;;21.00;66.20;;;;;;4987321;28;20085;-50
2023/10/03 02:16:40;;;;;;;14.70;8.93;;;21.00;66.20;;;;;;4989413;28;20424;-49
2023/10/03 02:19:09;;;;;;;14.43;7.63;;;21.10;66.10;;;;;;4983290;28;20105;-49
2023/10/03 02:21:41;;;;;;;17.70;8.90;;;21.10;66.10;;;;;;4985912;28;20089;-48
2023/10/03 02:24:12;;;;;;;15.02;8.35;;;21.10;65.80;;;;;;4980143;28;20049;-49
2023/10/03 02:26:45;;;;;;;17.92;9.40;;;21.20;65.60;;;;;;4987589;28;20058;-52
2023/10/03 02:29:21;;;;;;;17.95;8.30;;;21.30;65.30;;;;;;4975452;28;20074;-50
2023/10/03 02:31:51;;;;;;;17.17;9.18;;;21.40;65.00;;;;;;4981113;28;20065;-53
2023/10/03 02:34:19;;;;;;;18.17;8.13;;;21.50;64.70;;;;;;4979041;28;20053;-50
2023/10/03 02:36:48;;;;;;;16.50;8.65;;;21.60;64.60;;;;;;4975999;28;20607;-49
2023/10/03 02:39:25;;;;;;;18.92;8.30;;;21.70;64.00;;;;;;4979986;28;20465;-50
2023/10/03 02:41:53;;;;;;;14.05;8.23;;;21.80;63.70;;;;;;4974982;28;20050;-50
2023/10/03 02:44:23;;;;;;;14.60;8.80;;;21.90;63.20;;;;;;4983482;28;20696;-50
2023/10/03 02:46:50;;;;;;;14.07;7.75;;;22.10;62.90;;;;;;4974793;28;20058;-51
2023/10/03 02:49:17;;;;;;;15.30;8.52;;;22.20;62.60;;;;;;4974145;28;20484;-48
2023/10/03 02:51:45;;;;;;;13.95;7.88;;;22.30;62.20;;;;;;4987903;28;20108;-52
2023/10/03 02:54:11;;;;;;;15.77;8.45;;;22.40;61.90;;;;;;4986100;28;20050;-52
2023/10/03 02:56:40;;;;;;;14.40;8.10;;;22.50;61.70;;;;;;4983965;28;20492;-48
2023/10/03 02:59:09;;;;;;;15.82;9.23;;;22.60;61.50;;;;;;4980254;28;20035;-53
2023/10/03 03:01:39;;;;;;;16.35;8.32;;;22.70;61.20;;;;;;4981819;28;20526;-51
2023/10/03 03:04:11;;;;;;;22.00;8.13;;;22.80;60.90;;;;;;4980881;28;20591;-52
2023/10/03 03:06:40;;;;;;;13.40;7.40;;;22.80;60.60;;;;;;4999292;28;20444;-50
2023/10/03 03:09:13;;;;;;;13.63;7.80;;;22.90;60.40;;;;;;4982684;28;20097;-53
2023/10/03 03:11:48;;;;;;;18.05;7.90;;;22.90;60.20;;;;;;5000877;28;20050;-49
2023/10/03 03:14:19;;;;;;;14.90;8.70;;;23.00;60.00;;;;;;4970294;28;20046;-52
2023/10/03 03:16:47;;;;;;;14.15;7.57;;;23.00;60.00;;;;;;4985213;28;20519;-53
2023/10/03 03:19:17;;;;;;;16.17;7.65;;;23.00;59.70;;;;;;4984826;28;20607;-53
2023/10/03 03:22:04;;;;;;;14.60;8.02;;;23.10;59.70;;;;;;4977905;28;20038;-52
2023/10/03 03:24:34;;;;;;;11.95;6.43;;;23.10;59.40;;;;;;4974956;28;20059;-53
2023/10/03 03:27:01;;;;;;;11.88;6.55;;;23.10;59.40;;;;;;4985336;28;20558;-50
2023/10/03 03:29:35;;;;;;;15.15;8.15;;;23.20;59.60;;;;;;4989664;28;20046;-50
2023/10/03 03:32:04;;;;;;;15.27;8.40;;;23.20;59.30;;;;;;4978112;28;20509;-51
2023/10/03 03:34:34;;;;;;;13.43;8.23;;;23.20;59.20;;;;;;4983069;28;20046;-50
2023/10/03 03:37:20;;;;;;;14.05;8.55;;;23.30;59.20;;;;;;4976999;28;20481;-51
2023/10/03 03:39:56;;;;;;;16.45;8.38;;;23.30;59.20;;;;;;4975091;28;20046;-49
2023/10/03 03:42:28;;;;;;;14.65;7.38;;;23.30;59.00;;;;;;4978975;28;20042;-49
2023/10/03 03:45:05;;;;;;;13.25;7.85;;;23.40;59.10;;;;;;4974944;28;20093;-52
2023/10/03 03:47:36;;;;;;;15.60;8.13;;;23.30;59.10;;;;;;4977739;28;20081;-50
2023/10/03 03:50:10;;;;;;;14.77;8.00;;;23.40;59.00;;;;;;4976236;28;20557;-50
2023/10/03 03:52:39;;;;;;;14.23;8.27;;;23.40;59.00;;;;;;4984443;28;20599;-53
2023/10/03 03:55:14;;;;;;;15.00;8.23;;;23.40;59.20;;;;;;4981847;28;20045;-52
2023/10/03 03:57:45;;;;;;;11.60;7.90;;;23.40;59.00;;;;;;4980135;28;20103;-48
2023/10/03 04:00:20;;;;;;;16.05;8.07;;;23.40;59.20;;;;;;4977460;28;20047;-50
2023/10/03 04:02:48;;;;;;;14.70;8.50;;;23.40;59.20;;;;;;4981212;28;20555;-52
2023/10/03 04:05:17;;;;;;;14.98;8.57;;;23.40;59.10;;;;;;4979927;28;20042;-50
2023/10/03 04:07:47;;;;;;;11.00;7.03;;;23.40;59.20;;;;;;4988543;28;20050;-49
2023/10/03 04:10:19;;;;;;;16.88;9.20;;;23.40;59.20;;;;;;4981811;28;20048;-51
2023/10/03 04:12:51;;;;;;;18.60;9.18;;;23.40;59.20;;;;;;4974811;28;20050;-52
2023/10/03 04:15:19;;;;;;;13.23;8.23;;;23.40;59.20;;;;;;4980607;28;20050;-50
2023/10/03 04:17:49;;;;;;;17.83;8.95;;;23.30;59.20;;;;;;4973454;28;20126;-51
2023/10/03 04:20:25;;;;;;;14.32;8.38;;;23.30;59.30;;;;;;4978686;28;20042;-50
2023/10/03 04:22:55;;;;;;;15.05;9.48;;;23.30;59.40;;;;;;4981848;28;20042;-53
2023/10/03 04:25:22;;;;;;;13.30;8.57;;;23.30;59.50;;;;;;4980593;28;20097;-53
2023/10/03 04:27:53;;;;;;;14.15;7.97;;;23.30;59.60;;;;;;4979945;28;20042;-52
2023/10/03 04:30:25;;;;;;;14.18;7.75;;;23.30;59.60;;;;;;4985121;28;20146;-49
2023/10/03 04:32:53;;;;;;;14.80;8.48;;;23.30;59.70;;;;;;4981116;28;20120;-49
2023/10/03 04:35:21;;;;;;;12.88;7.93;;;23.30;59.60;;;;;;4981111;28;20050;-50
2023/10/03 04:37:56;;;;;;;14.45;8.13;;;23.30;60.30;;;;;;4983656;28;20126;-51
2023/10/03 04:40:28;;;;;;;14.63;7.40;;;23.20;59.70;;;;;;4984774;28;20050;-51
2023/10/03 04:42:56;;;;;;;14.02;7.82;;;23.20;59.80;;;;;;4985544;28;20047;-52
2023/10/03 04:45:29;;;;;;;14.60;7.80;;;23.20;59.90;;;;;;4980386;28;20054;-50
2023/10/03 04:47:58;;;;;;;14.32;8.20;;;23.20;60.00;;;;;;4983543;28;20442;-52
2023/10/03 04:50:30;;;;;;;13.40;8.05;;;23.20;60.10;;;;;;4983516;28;20511;-51
2023/10/03 04:52:59;;;;;;;17.65;9.02;;;23.20;60.30;;;;;;4982614;28;20101;-52
2023/10/03 04:55:26;;;;;;;16.20;8.00;;;23.10;60.30;;;;;;4991235;28;20065;-52
2023/10/03 04:57:54;;;;;;;15.60;8.68;;;23.10;60.40;;;;;;4983733;28;20042;-51
2023/10/03 05:00:22;;;;;;;20.17;9.48;;;23.10;60.40;;;;;;4982184;28;20035;-49
2023/10/03 05:02:53;;;;;;;17.17;8.00;;;23.10;60.90;;;;;;4980425;28;20574;-53
2023/10/03 05:05:25;;;;;;;13.25;8.73;;;23.10;60.60;;;;;;4983704;28;20114;-50
2023/10/03 05:07:56;;;;;;;12.70;7.95;;;23.00;60.60;;;;;;4986238;28;20100;-52
2023/10/03 05:10:24;;;;;;;15.18;7.68;;;23.00;60.80;;;;;;4984710;28;20042;-52
2023/10/03 05:12:52;;;;;;;13.90;7.25;;;23.00;60.90;;;;;;4979728;28;20062;-52
2023/10/03 05:15:22;;;;;;;11.57;7.50;;;22.90;61.00;;;;;;4975660;28;20420;-53
2023/10/03 05:17:56;;;;;;;13.80;7.43;;;22.90;61.30;;;;;;4976700;28;20111;-49
2023/10/03 05:20:37;;;;;;;12.63;7.40;;;22.90;61.40;;;;;;4980600;28;20039;-53
2023/10/03 05:23:10;;;;;;;12.50;7.97;;;22.90;61.60;;;;;;4981605;28;20045;-51
2023/10/03 05:25:43;;;;;;;12.27;6.95;;;22.90;61.70;;;;;;4984532;28;20041;-50
2023/10/03 05:28:13;;;;;;;16.58;7.85;;;22.80;61.70;;;;;;4986783;28;20042;-53
2023/10/03 05:30:40;;;;;;;13.50;7.32;;;22.80;61.90;;;;;;4985251;28;20524;-52
2023/10/03 05:33:09;;;;;;;13.13;7.72;;;22.80;61.90;;;;;;4985199;28;20145;-48
2023/10/03 05:35:39;;;;;;;15.52;8.10;;;22.80;62.00;;;;;;4986034;28;20046;-53
2023/10/03 05:38:09;;;;;;;12.07;7.00;;;22.80;62.20;;;;;;4988801;28;20053;-52
2023/10/03 05:40:39;;;;;;;11.52;7.22;;;22.80;62.40;;;;;;4987724;28;20049;-49
2023/10/03 05:43:13;;;;;;;12.20;6.93;;;22.80;62.40;;;;;;4984959;28;20049;-52
2023/10/03 05:45:40;;;;;;;10.95;6.68;;;22.80;62.40;;;;;;4985694;28;20050;-53
2023/10/03 05:48:10;;;;;;;13.98;6.97;;;22.80;62.50;;;;;;4998394;23;20043;-51
2023/10/03 05:50:36;;;;;;;11.98;6.20;;;22.80;62.50;;;;;;4957765;28;20043;-52
2023/10/03 05:53:06;;;;;;;9.90;6.03;;;22.80;62.50;;;;;;4952366;28;20138;-50
2023/10/03 05:55:33;;;;;;;14.25;6.20;;;22.80;62.40;;;;;;4959419;28;20046;-54
2023/10/03 05:58:02;;;;;;;7.95;5.05;;;22.80;62.40;;;;;;4963744;28;20121;-51
2023/10/03 06:00:29;;;;;;;7.97;5.53;;;22.80;62.30;;;;;;4962870;28;20054;-55
2023/10/03 06:02:56;;;;;;;8.45;5.10;;;22.80;62.30;;;;;;4958399;28;20556;-56
2023/10/03 06:05:24;;;;;;;9.55;5.15;;;22.80;62.20;;;;;;4967130;28;20133;-53
2023/10/03 06:07:54;;;;;;;9.15;5.13;;;22.80;62.20;;;;;;4967435;28;20536;-54
2023/10/03 06:10:29;;;;;;;7.65;5.18;;;22.80;62.20;;;;;;4966948;28;20035;-52
2023/10/03 06:12:56;;;;;;;6.55;4.72;;;22.80;62.30;;;;;;4965209;28;20131;-53
2023/10/03 06:15:24;;;;;;;7.75;4.53;;;22.80;62.30;;;;;;4963024;28;20043;-56
2023/10/03 06:17:52;;;;;;;7.10;4.80;;;22.80;62.20;;;;;;4967877;28;20050;-55
2023/10/03 06:20:19;;;;;;;5.82;4.80;;;22.80;62.10;;;;;;4965235;28;20043;-53
2023/10/03 06:22:46;;;;;;;10.35;4.32;;;22.80;62.20;;;;;;4963826;28;20042;-52
2023/10/03 06:25:16;;;;;;;5.22;4.25;;;22.80;62.20;;;;;;4970736;28;20053;-53
2023/10/03 06:27:43;;;;;;;6.28;4.60;;;22.80;62.30;;;;;;4969147;28;20124;-56
2023/10/03 06:30:10;;;;;;;8.00;4.32;;;22.70;62.30;;;;;;4970753;28;20046;-52
2023/10/03 06:32:37;;;;;;;6.70;4.40;;;22.70;62.40;;;;;;4966636;28;20465;-52
2023/10/03 06:35:09;;;;;;;7.22;4.57;;;22.70;62.50;;;;;;4951300;28;20051;-56
2023/10/03 06:37:37;;;;;;;7.20;3.90;;;22.70;62.50;;;;;;4966345;28;20066;-57
2023/10/03 06:40:07;;;;;;;6.80;3.85;;;22.70;62.50;;;;;;4962906;28;20489;-55
2023/10/03 06:42:35;;;;;;;6.00;4.03;;;22.70;62.40;;;;;;4965397;28;20042;-56
2023/10/03 06:45:03;;;;;;;8.38;4.20;;;22.70;62.30;;;;;;4971037;28;20046;-55
2023/10/03 06:47:33;;;;;;;5.43;3.72;;;22.60;62.20;;;;;;4968584;28;20046;-53
2023/10/03 06:49:59;;;;;;;5.80;4.10;;;22.60;62.10;;;;;;4967091;28;20122;-52
2023/10/03 06:52:28;;;;;;;7.10;5.07;;;22.60;62.20;;;;;;4965712;28;20039;-55
2023/10/03 06:54:54;;;;;;;5.43;3.92;;;22.60;62.20;;;;;;4971115;28;20134;-54
2023/10/03 06:57:21;;;;;;;8.35;4.88;;;22.60;62.40;;;;;;4963479;28;20078;-55
2023/10/03 06:59:52;;;;;;;7.22;4.65;;;22.60;62.40;;;;;;4968714;28;20043;-52
2023/10/03 07:02:19;;;;;;;4.63;4.10;;;22.50;62.50;;;;;;4964695;28;20122;-52
2023/10/03 07:04:46;;;;;;;5.53;4.20;;;22.50;62.50;;;;;;4965750;28;20039;-54
2023/10/03 07:07:13;;;;;;;6.30;4.43;;;22.50;62.60;;;;;;4967006;28;20050;-56
2023/10/03 07:09:40;;;;;;;7.55;4.30;;;22.50;62.60;;;;;;4970201;28;20126;-54
2023/10/03 07:12:08;;;;;;;6.65;4.13;;;22.50;62.60;;;;;;4964976;28;20043;-55
2023/10/03 07:14:35;;;;;;;5.75;4.13;;;22.50;62.70;;;;;;4968240;28;20122;-55
2023/10/03 07:17:03;;;;;;;5.53;3.90;;;22.50;62.60;;;;;;4969977;28;20050;-53
2023/10/03 07:19:30;;;;;;;6.35;3.88;;;22.60;62.80;;;;;;4965726;28;20068;-55
2023/10/03 07:21:57;;;;;;;5.03;3.78;;;22.50;62.90;;;;;;4964718;28;20105;-54
2023/10/03 07:24:28;;;;;;;4.90;3.83;;;22.60;63.10;;;;;;4977970;28;20090;-54
2023/10/03 07:26:55;;;;;;;7.13;4.47;;;22.60;63.00;;;;;;4970121;28;20042;-51
2023/10/03 07:29:22;;;;;;;5.82;3.65;;;22.60;62.90;;;;;;4965109;28;20465;-55
2023/10/03 07:31:48;;;;;;;5.95;4.35;;;22.60;63.00;;;;;;4971234;28;20452;-52
2023/10/03 07:34:18;;;;;;;5.05;3.90;;;22.70;63.10;;;;;;4967740;28;20512;-56
2023/10/03 07:36:45;;;;;;;8.35;4.25;;;22.70;63.00;;;;;;4969565;28;20074;-55
2023/10/03 07:39:15;;;;;;;5.25;4.30;;;22.70;62.90;;;;;;4960030;28;20579;-53
2023/10/03 07:41:44;;;;;;;5.78;4.15;;;22.80;62.70;;;;;;4967135;28;20085;-56
2023/10/03 07:44:10;;;;;;;5.50;3.88;;;22.90;62.70;;;;;;4965252;28;20049;-56
2023/10/03 07:46:37;;;;;;;7.40;4.72;;;22.90;62.40;;;;;;4983813;28;20445;-54
2023/10/03 07:49:04;;;;;;;7.50;4.28;;;23.00;62.40;;;;;;4966791;28;20049;-56
2023/10/03 07:51:32;;;;;;;6.20;4.60;;;23.00;62.30;;;;;;4963282;28;20141;-54
2023/10/03 07:53:59;;;;;;;6.88;4.45;;;23.10;62.60;;;;;;4964083;28;20110;-54
2023/10/03 07:56:33;;;;;;;5.35;4.70;;;23.10;62.30;;;;;;4969625;28;20121;-54
2023/10/03 07:59:04;;;;;;;7.47;4.80;;;23.10;62.10;;;;;;4966692;28;20049;-53
2023/10/03 08:01:32;;;;;;;6.47;4.68;;;23.40;62.10;;;;;;4965337;28;20039;-55
2023/10/03 08:04:23;;;;;;;6.30;4.28;;;23.10;62.10;;;;;;4965611;28;20124;-54
2023/10/03 08:06:50;;;;;;;7.47;4.00;;;23.10;62.20;;;;;;4968014;28;20039;-56
2023/10/03 08:09:17;;;;;;;7.82;4.45;;;23.10;62.30;;;;;;4968874;28;20070;-52
2023/10/03 08:11:47;;;;;;;4.85;3.70;;;23.10;62.50;;;;;;4971984;28;20050;-56
2023/10/03 08:14:16;;;;;;;5.93;4.60;;;23.00;62.50;;;;;;4969751;28;20096;-57
2023/10/03 08:16:44;;;;;;;5.95;4.20;;;23.00;62.70;;;;;;4972519;28;20584;-55
2023/10/03 08:19:21;;;;;;;8.63;4.70;;;23.00;62.80;;;;;;4972787;28;20039;-53
2023/10/03 08:21:48;;;;;;;5.15;4.18;;;22.90;62.90;;;;;;4968865;28;20093;-55
2023/10/03 08:24:19;;;;;;;4.65;4.15;;;22.80;63.10;;;;;;4972135;28;20039;-55
2023/10/03 08:26:46;;;;;;;6.95;4.03;;;22.80;63.20;;;;;;4973663;28;20039;-55
2023/10/03 08:29:21;;;;;;;5.97;4.18;;;22.80;63.30;;;;;;4970072;28;20098;-56
2023/10/03 08:31:49;;;;;;;5.38;3.70;;;22.70;63.50;;;;;;4970894;28;20150;-55
2023/10/03 08:34:17;;;;;;;4.72;4.07;;;22.70;63.60;;;;;;4968481;28;20050;-52
2023/10/03 08:36:43;;;;;;;5.05;4.43;;;22.70;63.80;;;;;;4970641;28;20093;-55
2023/10/03 08:39:13;;;;;;;7.50;4.28;;;22.60;63.90;;;;;;4973740;28;20133;-56
2023/10/03 08:41:47;;;;;;;8.30;4.72;;;22.70;64.10;;;;;;4969866;28;20464;-53
2023/10/03 08:44:14;;;;;;;5.22;4.28;;;22.70;64.00;;;;;;4967799;28;20489;-55
2023/10/03 08:46:48;;;;;;;4.32;3.55;;;22.70;64.20;;;;;;4973433;28;20122;-52
2023/10/03 08:49:19;;;;;;;7.35;4.32;;;22.70;64.30;;;;;;4972548;28;20074;-54
2023/10/03 08:51:46;;;;;;;6.43;3.75;;;22.80;64.40;;;;;;4970827;28;20154;-52
2023/10/03 08:54:13;;;;;;;7.18;5.00;;;22.80;64.10;;;;;;4970365;28;20059;-56
2023/10/03 08:56:41;;;;;;;5.93;4.50;;;22.80;64.00;;;;;;4973027;28;20070;-55
2023/10/03 08:59:09;;;;;;;4.25;3.85;;;22.90;63.80;;;;;;4973810;28;20126;-55
2023/10/03 09:01:45;;;;;;;5.80;3.67;;;22.90;63.70;;;;;;4971101;28;20046;-55
2023/10/03 09:04:15;;;;;;;5.60;3.97;;;23.00;63.80;;;;;;4967600;28;20043;-55
2023/10/03 09:06:43;;;;;;;5.43;3.70;;;23.00;63.50;;;;;;4973041;28;20051;-51
2023/10/03 09:09:13;;;;;;;6.07;3.97;;;23.00;63.50;;;;;;4973539;28;20047;-53
2023/10/03 09:11:45;;;;;;;5.75;3.53;;;23.00;63.70;;;;;;4973287;28;20473;-51
2023/10/03 09:14:19;;;;;;;5.75;3.65;;;23.00;64.20;;;;;;4969425;28;20072;-51
2023/10/03 09:16:50;;;;;;;6.07;3.55;;;22.90;64.00;;;;;;4971612;28;20501;-53
2023/10/03 09:19:23;;;;;;;3.93;3.53;;;22.90;64.00;;;;;;4972187;28;20131;-56
2023/10/03 09:21:54;;;;;;;6.25;3.53;;;22.90;64.00;;;;;;4965213;28;20066;-56
2023/10/03 09:24:23;;;;;;;4.53;3.33;;;22.80;64.00;;;;;;4968569;28;20074;-54
2023/10/03 09:27:02;;;;;;;4.18;3.78;;;22.80;63.90;;;;;;4973460;28;20039;-52
2023/10/03 09:29:30;;;;;;;3.80;3.45;;;22.80;64.10;;;;;;4973379;28;20042;-52
2023/10/03 09:32:16;;;;;;;4.95;3.53;;;22.80;64.20;;;;;;4964985;28;20062;-52
2023/10/03 09:34:46;;;;;;;4.00;3.15;;;22.70;64.30;;;;;;4962452;28;20049;-52
2023/10/03 09:37:13;;;;;;;5.28;3.90;;;22.80;64.30;;;;;;4971538;28;20066;-55
2023/10/03 09:39:47;;;;;;;3.78;3.38;;;22.80;64.20;;;;;;4971191;28;20038;-54
2023/10/03 09:42:16;;;;;;;3.97;3.67;;;22.80;64.20;;;;;;4972872;28;20093;-52
2023/10/03 09:44:50;;;;;;;4.93;3.47;;;22.80;64.00;;;;;;4967542;28;20049;-55
2023/10/03 09:47:18;;;;;;;7.35;3.72;;;22.80;64.30;;;;;;4970845;28;20505;-54
2023/10/03 09:49:47;;;;;;;8.63;4.28;;;22.70;64.70;;;;;;4972465;28;20043;-56
2023/10/03 09:52:22;;;;;;;9.68;5.03;;;22.70;65.90;;;;;;4968846;28;20446;-59
2023/10/03 09:54:53;;;;;;;5.93;4.75;;;22.60;67.80;;;;;;4965617;28;20284;-56
2023/10/03 09:57:21;;;;;;;7.78;5.20;;;22.50;67.90;;;;;;4971301;28;20054;-55
2023/10/03 09:59:49;;;;;;;7.97;5.70;;;22.30;68.70;;;;;;4962679;28;20442;-53
2023/10/03 10:02:23;;;;;;;5.75;5.22;;;22.10;69.00;;;;;;4968278;28;20057;-56
2023/10/03 10:04:51;;;;;;;7.40;5.30;;;21.90;69.60;;;;;;4960674;28;20043;-57
2023/10/03 10:07:34;;;;;;;7.03;5.65;;;21.70;70.50;;;;;;4967099;28;20405;-54
2023/10/03 10:10:14;;;;;;;6.70;6.00;;;21.50;71.70;;;;;;4964453;28;20039;-54
2023/10/03 10:13:12;;;;;;;5.57;5.10;;;21.40;71.40;;;;;;4964975;28;20121;-55
2023/10/03 10:16:00;;;;;;;8.82;5.63;;;21.20;73.20;;;;;;4970953;28;20137;-56
2023/10/03 10:18:45;;;;;;;6.53;5.45;;;21.00;73.90;;;;;;4972348;28;20129;-55
2023/10/03 10:21:21;;;;;;;7.68;5.82;;;20.90;74.10;;;;;;4963500;28;20049;-54
2023/10/03 10:24:16;;;;;;;6.88;6.00;;;20.80;74.90;;;;;;4971030;28;20054;-57
2023/10/03 10:26:48;;;;;;;6.70;5.88;;;20.70;76.40;;;;;;4971487;28;20046;-54
2023/10/03 10:29:20;;;;;;;8.30;5.75;;;20.70;75.60;;;;;;4966670;28;20055;-56
2023/10/03 10:31:57;;;;;;;10.35;6.15;;;20.70;76.00;;;;;;4966126;28;20046;-56
2023/10/03 10:34:27;;;;;;;8.50;5.93;;;20.70;76.10;;;;;;4961332;28;20694;-54
2023/10/03 10:36:56;;;;;;;6.80;5.25;;;20.70;76.50;;;;;;4970939;28;20125;-56
2023/10/03 10:39:52;;;;;;;5.65;4.78;;;20.70;76.40;;;;;;4971685;28;20474;-56
2023/10/03 10:42:25;;;;;;;7.35;5.65;;;20.70;77.40;;;;;;4972148;28;20126;-53
2023/10/03 10:45:13;;;;;;;6.18;4.40;;;20.70;76.40;;;;;;4963312;28;20031;-56
2023/10/03 10:47:54;;;;;;;7.82;4.25;;;20.70;77.20;;;;;;4971520;28;20729;-56
2023/10/03 10:50:28;;;;;;;3.35;2.17;;;20.70;76.60;;;;;;4961513;28;20082;-54
2023/10/03 10:52:56;;;;;;;2.72;1.60;;;20.60;75.70;;;;;;4964785;28;20054;-52
2023/10/03 10:55:25;;;;;;;3.05;1.17;;;20.60;74.90;;;;;;4971117;28;20047;-55
2023/10/03 10:58:12;;;;;;;2.05;0.60;;;20.60;74.30;;;;;;4975215;28;20074;-54
2023/10/03 11:00:40;;;;;;;2.38;0.60;;;20.60;74.30;;;;;;4978227;28;20120;-51
2023/10/03 11:03:07;;;;;;;0.70;0.60;;;20.50;74.00;;;;;;4971531;28;20091;-57
2023/10/03 11:05:46;;;;;;;1.75;0.50;;;20.50;74.90;;;;;;4966526;28;20039;-52
2023/10/03 11:08:14;;;;;;;1.55;0.65;;;20.50;74.40;;;;;;4968008;28;20477;-57
2023/10/03 11:10:52;;;;;;;1.80;0.60;;;20.50;74.40;;;;;;4969031;28;20136;-57
2023/10/03 11:13:23;;;;;;;0.60;0.40;;;20.50;74.40;;;;;;4964066;28;20498;-56
2023/10/03 11:15:51;;;;;;;1.80;0.65;;;20.40;74.30;;;;;;4970077;28;20249;-54
2023/10/03 11:18:28;;;;;;;1.50;0.50;;;20.50;74.00;;;;;;4970805;28;20055;-52
2023/10/03 11:20:57;;;;;;;1.77;0.57;;;20.40;74.40;;;;;;4970639;28;20043;-53
2023/10/03 11:23:24;;;;;;;1.02;0.43;;;20.50;73.60;;;;;;4963005;28;20067;-57
2023/10/03 11:25:58;;;;;;;2.65;0.50;;;20.50;73.60;;;;;;4970204;28;20494;-54
2023/10/03 11:28:28;;;;;;;1.00;0.40;;;20.50;73.00;;;;;;4968227;28;20462;-56
2023/10/03 11:31:03;;;;;;;1.58;0.50;;;20.50;73.00;;;;;;4960570;28;20054;-55
2023/10/03 11:33:41;;;;;;;2.65;1.25;;;20.50;73.60;;;;;;4966767;28;20043;-56
2023/10/03 11:36:08;;;;;;;0.90;0.55;;;20.40;73.00;;;;;;4966880;28;20101;-53
2023/10/03 11:38:49;;;;;;;2.67;0.45;;;20.40;72.40;;;;;;4964172;28;20054;-54
2023/10/03 11:41:37;;;;;;;1.77;0.63;;;20.40;72.50;;;;;;4968787;28;20497;-55
2023/10/03 11:44:15;;;;;;;2.15;0.52;;;20.40;72.60;;;;;;4966093;28;20152;-54
2023/10/03 11:46:43;;;;;;;1.95;0.57;;;20.30;72.20;;;;;;4970150;28;20074;-55
2023/10/03 11:49:10;;;;;;;0.73;0.50;;;20.30;72.20;;;;;;4967796;28;20408;-55
2023/10/03 11:51:42;;;;;;;1.27;0.38;;;20.30;72.20;;;;;;4968906;28;20081;-55
2023/10/03 11:54:11;;;;;;;0.85;0.20;;;20.30;72.00;;;;;;4970284;28;20054;-53
2023/10/03 11:56:44;;;;;;;2.17;0.20;;;20.30;71.90;;;;;;4968715;28;20113;-52
2023/10/03 11:59:15;;;;;;;2.83;0.50;;;20.30;72.00;;;;;;4962251;28;20047;-56
2023/10/03 12:01:43;;;;;;;3.00;0.77;;;20.30;71.40;;;;;;4966425;28;20044;-53
2023/10/03 12:04:11;;;;;;;1.55;0.43;;;20.20;71.60;;;;;;4966273;28;20039;-57
2023/10/03 12:06:38;;;;;;;1.65;0.25;;;20.10;71.60;;;;;;4991843;23;20130;-58
2023/10/03 12:09:08;;;;;;;2.00;0.55;;;20.00;71.70;;;;;;4978280;28;20100;-57
2023/10/03 12:11:37;;;;;;;0.20;0.20;;;19.90;71.90;;;;;;4975818;28;20047;-57
2023/10/03 12:14:05;;;;;;;1.60;0.30;;;19.70;72.60;;;;;;4977242;28;20043;-57
2023/10/03 12:16:32;;;;;;;1.92;0.43;;;19.60;73.70;;;;;;4981990;28;20085;-57
2023/10/03 12:18:59;;;;;;;0.52;0.20;;;19.40;74.50;;;;;;4980980;28;20044;-58
2023/10/03 12:21:26;;;;;;;0.55;0.20;;;19.40;75.60;;;;;;4982305;28;20489;-58
2023/10/03 12:23:52;;;;;;;0.90;0.30;;;19.30;76.70;;;;;;4985912;28;21610;-57
2023/10/03 12:26:19;;;;;;;1.20;0.40;;;19.30;77.20;;;;;;4977408;28;20047;-57
2023/10/03 12:28:55;;;;;;;0.80;0.50;;;19.40;77.60;;;;;;4977326;28;20067;-57
2023/10/03 12:31:25;;;;;;;1.80;0.52;;;19.40;77.50;;;;;;4985348;28;20050;-58
2023/10/03 12:33:52;;;;;;;3.58;0.57;;;19.40;77.20;;;;;;4986795;28;20046;-58
2023/10/03 12:36:19;;;;;;;1.92;1.10;;;19.40;76.90;;;;;;4987335;28;20078;-57
2023/10/03 12:38:47;;;;;;;3.92;1.42;;;19.40;76.70;;;;;;4981804;28;20097;-58
2023/10/03 12:41:14;;;;;;;1.58;0.80;;;19.40;76.60;;;;;;4978665;28;20101;-58
2023/10/03 12:43:46;;;;;;;1.80;0.85;;;19.40;76.90;;;;;;4987247;28;20062;-58
2023/10/03 12:46:16;;;;;;;3.95;0.80;;;19.40;76.30;;;;;;4987382;28;20093;-58
2023/10/03 12:48:44;;;;;;;3.50;1.20;;;19.40;76.90;;;;;;4982405;28;20038;-58
2023/10/03 12:51:11;;;;;;;3.20;1.00;;;19.40;76.40;;;;;;4983427;28;20286;-56
2023/10/03 12:53:38;;;;;;;1.25;0.80;;;19.40;76.00;;;;;;4986331;28;20480;-57
2023/10/03 12:56:09;;;;;;;3.00;1.02;;;19.30;76.40;;;;;;4989506;28;20042;-57
2023/10/03 12:58:37;;;;;;;2.75;1.00;;;19.40;76.60;;;;;;4993710;28;20046;-57